Time;durP1;ratioP1;P1;durP2;ratioP2;P2;SDS_P1;SDS_P2;PMS_P1;PMS_P2;Temp;Humidity;BMP_temperature;BMP_pressure;BME280_temperature;BME280_humidity;BME280_pressure;Samples;Min_cycle;Max_cycle;Signal;HPM_P1;HPM_P2
2021/10/04 00:00:46;;;;;;;1.70;0.70;;;;;;;11.24;100.00;93754.38;5072574;28;20199;-78
2021/10/04 00:03:13;;;;;;;2.07;0.60;;;;;;;11.29;100.00;93765.00;5072344;28;20658;-77
2021/10/04 00:05:41;;;;;;;0.80;0.50;;;;;;;11.32;100.00;93754.16;5072379;28;20260;-78
2021/10/04 00:08:08;;;;;;;0.77;0.70;;;;;;;11.34;100.00;93752.16;5072567;28;20199;-78
2021/10/04 00:10:35;;;;;;;0.93;0.70;;;;;;;11.31;100.00;93752.56;5072805;28;20201;-78
2021/10/04 00:13:03;;;;;;;0.60;0.60;;;;;;;11.29;100.00;93754.53;5071550;28;20685;-78
2021/10/04 00:15:31;;;;;;;1.17;0.70;;;;;;;11.29;100.00;93749.31;5072254;28;20198;-78
2021/10/04 00:17:59;;;;;;;1.27;0.70;;;;;;;11.28;100.00;93747.72;5053975;28;20208;-78
2021/10/04 00:20:26;;;;;;;3.63;0.80;;;;;;;11.24;100.00;93757.81;5052324;28;20208;-78
2021/10/04 00:22:59;;;;;;;0.80;0.50;;;;;;;11.25;100.00;93769.03;5055781;28;20224;-78
2021/10/04 00:25:27;;;;;;;0.60;0.60;;;;;;;11.23;100.00;93777.09;5056990;28;20662;-78
2021/10/04 00:27:54;;;;;;;0.63;0.63;;;;;;;11.24;100.00;93767.44;5076224;28;20198;-77
2021/10/04 00:30:21;;;;;;;1.40;0.90;;;;;;;11.24;100.00;93770.03;5076014;28;20201;-77
2021/10/04 00:32:52;;;;;;;1.03;0.80;;;;;;;11.23;100.00;93765.84;5076048;28;20235;-77
2021/10/04 00:35:21;;;;;;;1.97;0.70;;;;;;;11.21;100.00;93773.09;5075990;28;20207;-77
2021/10/04 00:37:49;;;;;;;0.70;0.70;;;;;;;11.22;100.00;93780.69;5075531;28;20202;-78
2021/10/04 00:40:18;;;;;;;2.50;0.63;;;;;;;11.22;100.00;93769.44;5075763;28;20282;-78
2021/10/04 00:42:49;;;;;;;0.77;0.67;;;;;;;11.26;100.00;93765.44;5075797;28;20572;-78
2021/10/04 00:45:16;;;;;;;0.90;0.60;;;;;;;11.23;100.00;93763.22;5075857;28;20205;-77
2021/10/04 00:47:43;;;;;;;1.05;0.73;;;;;;;11.21;100.00;93749.56;5075470;28;20672;-77
2021/10/04 00:50:13;;;;;;;1.20;0.90;;;;;;;11.19;100.00;93754.19;5075727;28;20210;-77
2021/10/04 00:52:45;;;;;;;1.57;0.70;;;;;;;11.20;100.00;93750.56;5075371;28;20241;-77
2021/10/04 00:55:13;;;;;;;0.70;0.60;;;;;;;11.18;100.00;93752.59;5075652;28;20256;-78
2021/10/04 00:57:40;;;;;;;0.60;0.60;;;;;;;11.19;100.00;93754.19;5075380;28;20665;-78
2021/10/04 01:00:11;;;;;;;1.77;0.70;;;;;;;11.18;100.00;93771.66;5074016;28;20442;-77
2021/10/04 01:02:38;;;;;;;0.73;0.70;;;;;;;11.16;100.00;93767.66;5075464;28;20199;-77
2021/10/04 01:05:06;;;;;;;0.70;0.60;;;;;;;11.14;100.00;93759.22;5075135;28;20557;-77
2021/10/04 01:07:33;;;;;;;2.20;1.03;;;;;;;11.16;100.00;93767.66;5075203;28;20207;-77
2021/10/04 01:10:04;;;;;;;0.60;0.60;;;;;;;11.14;100.00;93772.28;5075325;28;20285;-77
2021/10/04 01:12:32;;;;;;;0.60;0.60;;;;;;;11.13;100.00;93768.88;5075254;28;20209;-77
2021/10/04 01:14:58;;;;;;;0.80;0.60;;;;;;;11.17;100.00;93767.44;5074989;28;20654;-77
2021/10/04 01:17:33;;;;;;;0.70;0.60;;;;;;;11.16;100.00;93775.47;5074917;28;20225;-77
2021/10/04 01:20:10;;;;;;;0.63;0.60;;;;;;;11.13;100.00;93781.16;5075183;28;20281;-77
2021/10/04 01:22:37;;;;;;;2.40;0.63;;;;;;;11.07;100.00;93778.34;5074980;28;20238;-78
2021/10/04 01:25:04;;;;;;;0.77;0.60;;;;;;;11.07;100.00;93794.00;5074274;28;20203;-77
2021/10/04 01:27:34;;;;;;;0.50;0.50;;;;;;;11.05;100.00;93790.78;5074947;28;20198;-78
2021/10/04 01:30:02;;;;;;;0.73;0.70;;;;;;;11.04;100.00;93791.81;5074782;28;20652;-77
2021/10/04 01:32:31;;;;;;;1.00;0.80;;;;;;;11.01;100.00;93788.78;5074332;28;20195;-77
2021/10/04 01:34:58;;;;;;;3.13;0.57;;;;;;;11.03;100.00;93786.78;5074661;28;20230;-77
2021/10/04 01:37:27;;;;;;;1.23;0.57;;;;;;;11.06;100.00;93778.53;5074613;28;20582;-77
2021/10/04 01:39:53;;;;;;;0.60;0.60;;;;;;;11.02;100.00;93795.59;5074770;28;20195;-77
2021/10/04 01:42:23;;;;;;;0.60;0.60;;;;;;;11.02;100.00;93796.41;5074715;28;20195;-77
2021/10/04 01:44:51;;;;;;;0.90;0.70;;;;;;;10.95;100.00;93795.63;5074300;28;20207;-77
2021/10/04 01:47:18;;;;;;;4.90;0.85;;;;;;;10.97;100.00;93800.63;5074129;28;20442;-78
2021/10/04 01:49:44;;;;;;;1.50;0.80;;;;;;;10.87;100.00;93801.84;5074808;28;20206;-77
2021/10/04 01:52:12;;;;;;;0.57;0.57;;;;;;;10.73;100.00;93803.66;5074248;28;20234;-78
2021/10/04 01:54:40;;;;;;;0.97;0.50;;;;;;;10.62;100.00;93809.47;5074422;28;20230;-78
2021/10/04 01:57:07;;;;;;;1.10;0.80;;;;;;;10.56;100.00;93815.50;5075020;28;20608;-79
2021/10/04 01:59:34;;;;;;;0.90;0.80;;;;;;;10.41;100.00;93805.25;5074679;28;20256;-78
2021/10/04 02:02:00;;;;;;;1.00;0.80;;;;;;;10.29;100.00;93805.00;5074203;28;20600;-78
2021/10/04 02:04:27;;;;;;;0.70;0.70;;;;;;;10.23;100.00;93808.38;5074241;28;20682;-78
2021/10/04 02:06:53;;;;;;;2.73;0.70;;;;;;;10.13;100.00;93797.53;5074120;28;20195;-78
2021/10/04 02:09:20;;;;;;;0.87;0.80;;;;;;;10.07;100.00;93806.13;5074126;28;20211;-78
2021/10/04 02:11:48;;;;;;;0.80;0.77;;;;;;;10.03;100.00;93817.97;5074205;28;20198;-77
2021/10/04 02:14:16;;;;;;;0.83;0.70;;;;;;;10.01;100.00;93802.50;5074235;28;20230;-78
2021/10/04 02:16:42;;;;;;;0.90;0.70;;;;;;;9.95;100.00;93788.44;5073066;28;20198;-78
2021/10/04 02:19:09;;;;;;;1.70;0.83;;;;;;;9.92;100.00;93781.00;5074163;28;20198;-78
2021/10/04 02:21:36;;;;;;;1.07;1.00;;;;;;;9.88;100.00;93774.56;5073923;28;20230;-78
2021/10/04 02:24:02;;;;;;;1.63;0.90;;;;;;;9.85;100.00;93790.59;5073840;28;20198;-78
2021/10/04 02:26:29;;;;;;;1.33;1.00;;;;;;;9.85;100.00;93795.81;5073775;28;20205;-78
2021/10/04 02:28:57;;;;;;;1.30;0.87;;;;;;;9.88;100.00;93803.25;5074116;28;20195;-78
2021/10/04 02:31:23;;;;;;;0.93;0.70;;;;;;;9.88;100.00;93816.31;5073885;28;20198;-78
2021/10/04 02:33:50;;;;;;;0.90;0.80;;;;;;;9.89;100.00;93810.09;5073609;28;20233;-78
2021/10/04 02:36:21;;;;;;;2.07;0.90;;;;;;;9.88;100.00;93795.44;5073609;28;20252;-78
2021/10/04 02:38:48;;;;;;;0.97;0.70;;;;;;;9.89;100.00;93786.63;5073424;28;20654;-79
2021/10/04 02:41:14;;;;;;;3.07;1.00;;;;;;;9.92;100.00;93783.59;5073429;28;20658;-78
2021/10/04 02:43:41;;;;;;;0.70;0.70;;;;;;;9.93;100.00;93769.56;5072869;28;20207;-78
2021/10/04 02:46:08;;;;;;;1.10;0.93;;;;;;;9.93;100.00;93769.56;5073573;28;20202;-78
2021/10/04 02:48:35;;;;;;;1.63;0.90;;;;;;;9.94;100.00;93780.81;5073421;28;20199;-78
2021/10/04 02:51:02;;;;;;;0.97;0.83;;;;;;;9.90;100.00;93785.59;5073362;28;20202;-78
2021/10/04 02:53:28;;;;;;;1.13;0.90;;;;;;;9.85;100.00;93790.59;5073028;28;20624;-78
2021/10/04 02:55:55;;;;;;;1.90;0.93;;;;;;;9.80;100.00;93787.78;5073455;28;20276;-78
2021/10/04 02:58:21;;;;;;;1.10;1.00;;;;;;;9.79;100.00;93799.19;5073191;28;20577;-79
2021/10/04 03:00:48;;;;;;;2.53;0.97;;;;;;;9.78;100.00;93800.22;5073436;28;20210;-78
2021/10/04 03:03:15;;;;;;;1.20;1.07;;;;;;;9.78;100.00;93805.44;5073276;28;20607;-78
2021/10/04 03:05:42;;;;;;;1.60;1.00;;;;;;;9.84;100.00;93794.19;5073221;28;20198;-78
2021/10/04 03:08:08;;;;;;;3.93;1.00;;;;;;;9.81;100.00;93799.84;5073049;28;20202;-79
2021/10/04 03:10:35;;;;;;;1.00;0.77;;;;;;;9.84;100.00;93809.06;5073102;28;20206;-79
2021/10/04 03:13:02;;;;;;;1.40;0.60;;;;;;;9.83;100.00;93808.25;5073272;28;20194;-78
2021/10/04 03:15:29;;;;;;;3.30;0.70;;;;;;;9.82;100.00;93806.63;5072569;28;20692;-78
2021/10/04 03:17:55;;;;;;;0.70;0.70;;;;;;;9.82;100.00;93806.63;5073066;28;20592;-78
2021/10/04 03:20:23;;;;;;;1.10;0.80;;;;;;;9.79;100.00;93807.84;5072848;28;20203;-78
2021/10/04 03:22:50;;;;;;;1.97;0.90;;;;;;;9.79;100.00;93807.84;5072300;28;20292;-78
2021/10/04 03:25:17;;;;;;;2.77;0.60;;;;;;;9.85;100.00;93803.66;5073004;28;20203;-78
2021/10/04 03:27:44;;;;;;;1.10;0.90;;;;;;;9.72;100.00;93817.44;5073001;28;20638;-77
2021/10/04 03:30:11;;;;;;;1.40;0.87;;;;;;;9.63;100.00;93824.59;5072728;28;20613;-78
2021/10/04 03:32:38;;;;;;;0.90;0.73;;;;;;;9.57;100.00;93827.19;5072915;28;20276;-78
2021/10/04 03:35:05;;;;;;;0.60;0.60;;;;;;;9.55;100.00;93818.75;5072630;28;20226;-77
2021/10/04 03:37:33;;;;;;;1.03;0.70;;;;;;;9.53;100.00;93829.38;5072332;28;20199;-77
2021/10/04 03:40:00;;;;;;;0.80;0.80;;;;;;;9.68;100.00;93828.47;5072950;28;20244;-77
2021/10/04 03:42:26;;;;;;;0.80;0.80;;;;;;;9.66;100.00;93807.78;5073113;28;20203;-77
2021/10/04 03:44:53;;;;;;;0.80;0.80;;;;;;;9.67;100.00;93804.16;5072846;28;20206;-78
2021/10/04 03:47:19;;;;;;;2.43;0.70;;;;;;;9.72;100.00;93804.38;5072462;28;20194;-77
2021/10/04 03:49:46;;;;;;;0.70;0.70;;;;;;;9.75;100.00;93805.81;5072607;28;20201;-77
2021/10/04 03:52:12;;;;;;;0.60;0.60;;;;;;;9.84;100.00;93815.06;5072607;28;20210;-77
2021/10/04 03:54:40;;;;;;;1.30;0.77;;;;;;;9.78;100.00;93815.84;5072831;28;20227;-77
2021/10/04 03:57:07;;;;;;;0.80;0.80;;;;;;;9.75;100.00;93818.84;5076960;28;20202;-78
2021/10/04 03:59:33;;;;;;;0.67;0.67;;;;;;;9.84;100.00;93820.28;5076743;28;20208;-77
2021/10/04 04:02:00;;;;;;;1.67;1.07;;;;;;;9.80;100.00;93822.47;5076679;28;20244;-77
2021/10/04 04:04:27;;;;;;;1.10;1.00;;;;;;;9.81;100.00;93825.91;5076403;28;20206;-77
2021/10/04 04:06:53;;;;;;;1.07;0.83;;;;;;;9.86;100.00;93817.47;5076551;28;20199;-77
2021/10/04 04:09:20;;;;;;;1.10;0.90;;;;;;;9.92;100.00;93827.13;5075670;28;20434;-76
2021/10/04 04:11:48;;;;;;;1.00;0.90;;;;;;;9.79;100.00;93818.28;5075881;28;20249;-77
2021/10/04 04:14:14;;;;;;;1.00;0.90;;;;;;;9.84;100.00;93822.88;5076184;28;20276;-77
2021/10/04 04:16:40;;;;;;;0.90;0.83;;;;;;;9.78;100.00;93826.28;5076081;28;20661;-77
2021/10/04 04:19:07;;;;;;;2.30;1.10;;;;;;;9.72;100.00;93833.06;5076261;28;20245;-77
2021/10/04 04:21:34;;;;;;;1.20;0.80;;;;;;;9.77;100.00;93830.69;5075921;28;20727;-77
2021/10/04 04:24:01;;;;;;;1.87;1.20;;;;;;;9.77;100.00;93819.47;5076326;28;20297;-77
2021/10/04 04:26:27;;;;;;;2.80;0.73;;;;;;;9.76;100.00;93823.88;5075873;28;20202;-77
2021/10/04 04:28:55;;;;;;;1.17;0.93;;;;;;;9.69;100.00;93825.66;5076033;28;20207;-78
2021/10/04 04:31:21;;;;;;;1.43;1.10;;;;;;;9.69;100.00;93823.06;5075691;28;20669;-77
2021/10/04 04:33:48;;;;;;;9.47;5.50;;;;;;;9.76;100.00;93829.09;5076018;28;20207;-77
2021/10/04 04:36:14;;;;;;;10.47;5.87;;;;;;;9.73;100.00;93832.09;5076292;28;20199;-77
2021/10/04 04:38:41;;;;;;;5.07;2.47;;;;;;;9.70;100.00;93839.50;5075778;28;20654;-77
2021/10/04 04:41:07;;;;;;;1.33;1.23;;;;;;;9.70;100.00;93839.50;5076040;28;20248;-77
2021/10/04 04:43:34;;;;;;;1.33;1.10;;;;;;;9.69;100.00;93850.91;5075839;28;20267;-77
2021/10/04 04:46:01;;;;;;;1.27;1.00;;;;;;;9.66;100.00;93854.72;5075782;28;20203;-77
2021/10/04 04:48:28;;;;;;;1.10;1.00;;;;;;;9.67;100.00;93852.91;5075813;28;20252;-77
2021/10/04 04:50:55;;;;;;;1.20;1.00;;;;;;;9.66;100.00;93861.72;5075237;28;20235;-77
2021/10/04 04:53:22;;;;;;;1.53;1.43;;;;;;;9.70;100.00;93857.72;5075599;28;20210;-77
2021/10/04 04:55:48;;;;;;;1.80;1.20;;;;;;;9.68;100.00;93849.31;5075584;28;20230;-77
2021/10/04 04:58:14;;;;;;;1.63;1.20;;;;;;;9.69;100.00;93853.50;5075595;28;20585;-77
2021/10/04 05:00:41;;;;;;;1.33;1.10;;;;;;;9.71;100.00;93860.16;5075406;28;20206;-77
2021/10/04 05:03:09;;;;;;;1.57;1.00;;;;;;;9.70;100.00;93860.34;5075634;28;20264;-76
2021/10/04 05:05:35;;;;;;;1.57;1.30;;;;;;;9.70;100.00;93865.56;5075624;28;20203;-76
2021/10/04 05:08:01;;;;;;;2.03;0.93;;;;;;;9.59;100.00;93870.31;5074421;28;20207;-76
2021/10/04 05:10:28;;;;;;;2.60;1.37;;;;;;;9.57;100.00;93867.06;5075486;28;20199;-76
2021/10/04 05:12:55;;;;;;;2.00;1.20;;;;;;;9.56;100.00;93867.25;5075259;28;20543;-77
2021/10/04 05:15:21;;;;;;;1.47;1.00;;;;;;;9.50;100.00;93879.28;5075104;28;20632;-77
2021/10/04 05:17:47;;;;;;;5.73;1.20;;;;;;;9.44;100.00;93877.41;5075139;28;20600;-77
2021/10/04 05:20:15;;;;;;;3.07;1.90;;;;;;;9.43;100.00;93887.03;5075096;28;20202;-76
2021/10/04 05:22:42;;;;;;;1.17;0.90;;;;;;;9.37;100.00;93889.59;5074799;28;20238;-76
2021/10/04 05:25:10;;;;;;;1.00;0.90;;;;;;;9.38;100.00;93893.84;5074986;28;20203;-77
2021/10/04 05:27:38;;;;;;;0.80;0.80;;;;;;;9.36;100.00;93890.59;5074971;28;20202;-77
2021/10/04 05:30:06;;;;;;;1.23;0.93;;;;;;;9.20;100.00;93891.69;5075016;28;20198;-77
2021/10/04 05:32:33;;;;;;;0.70;0.70;;;;;;;9.21;100.00;93899.31;5074882;28;20742;-76
2021/10/04 05:34:59;;;;;;;1.07;0.97;;;;;;;9.20;100.00;93902.91;5074759;28;20230;-76
2021/10/04 05:37:28;;;;;;;1.20;0.90;;;;;;;9.25;100.00;93910.97;5074851;28;20198;-76
2021/10/04 05:39:54;;;;;;;0.73;0.73;;;;;;;9.28;100.00;93919.41;5074834;28;20199;-76
2021/10/04 05:42:20;;;;;;;0.90;0.90;;;;;;;9.26;100.00;93917.78;5074649;28;20699;-76
2021/10/04 05:44:47;;;;;;;0.90;0.90;;;;;;;9.17;100.00;93913.69;5074848;28;20206;-76
2021/10/04 05:47:14;;;;;;;1.10;1.00;;;;;;;9.18;100.00;93912.72;5074559;28;20221;-76
2021/10/04 05:49:40;;;;;;;1.17;1.00;;;;;;;9.18;100.00;93904.91;5074694;28;20209;-76
2021/10/04 05:52:07;;;;;;;3.33;0.80;;;;;;;9.20;100.00;93905.50;5074528;28;20203;-76
2021/10/04 05:54:35;;;;;;;5.23;1.23;;;;;;;9.21;100.00;93907.13;5074208;28;20746;-77
2021/10/04 05:57:02;;;;;;;1.23;0.77;;;;;;;9.21;100.00;93914.94;5074495;28;20211;-77
2021/10/04 05:59:28;;;;;;;1.40;0.90;;;;;;;9.13;100.00;93917.69;5074568;28;20202;-75
2021/10/04 06:01:54;;;;;;;2.10;0.60;;;;;;;9.14;100.00;93908.88;5074488;28;20199;-77
2021/10/04 06:04:21;;;;;;;1.07;0.90;;;;;;;9.15;100.00;93907.09;5073496;28;20198;-76
2021/10/04 06:06:47;;;;;;;2.13;1.00;;;;;;;9.17;100.00;93913.69;5074339;28;20203;-76
2021/10/04 06:09:14;;;;;;;0.73;0.70;;;;;;;9.20;100.00;93908.13;5074146;28;20600;-76
2021/10/04 06:11:41;;;;;;;0.70;0.67;;;;;;;9.29;100.00;93923.63;5074148;28;20672;-76
2021/10/04 06:14:08;;;;;;;1.00;0.70;;;;;;;9.42;100.00;93921.91;5073720;28;20203;-75
2021/10/04 06:16:35;;;;;;;1.43;1.00;;;;;;;9.45;100.00;93926.75;5074257;28;20206;-76
2021/10/04 06:19:01;;;;;;;2.90;0.80;;;;;;;9.50;100.00;93926.19;5073843;28;20638;-76
2021/10/04 06:21:28;;;;;;;2.33;0.80;;;;;;;9.60;100.00;93918.03;5073588;28;20238;-76
2021/10/04 06:23:54;;;;;;;4.13;1.10;;;;;;;9.66;100.00;93925.09;5073806;28;20202;-76
2021/10/04 06:26:21;;;;;;;1.63;1.20;;;;;;;9.70;100.00;93931.53;5073982;28;20207;-76
2021/10/04 06:28:49;;;;;;;0.83;0.83;;;;;;;9.75;100.00;93938.78;5073880;28;20195;-76
2021/10/04 06:31:15;;;;;;;2.17;0.90;;;;;;;9.78;100.00;93933.19;5073628;28;20198;-76
2021/10/04 06:33:42;;;;;;;1.43;1.00;;;;;;;9.84;100.00;93932.41;5073654;28;20215;-75
2021/10/04 06:36:08;;;;;;;1.93;1.30;;;;;;;9.83;100.00;93938.63;5073702;28;20237;-76
2021/10/04 06:38:35;;;;;;;2.50;1.60;;;;;;;9.78;100.00;93941.00;5073194;28;20542;-76
2021/10/04 06:41:01;;;;;;;2.40;1.30;;;;;;;9.68;100.00;93945.75;5073803;28;20198;-75
2021/10/04 06:43:28;;;;;;;1.90;1.40;;;;;;;9.68;100.00;93949.16;5073132;28;20203;-77
2021/10/04 06:45:55;;;;;;;2.43;1.17;;;;;;;9.65;100.00;93954.75;5073661;28;20205;-76
2021/10/04 06:48:22;;;;;;;1.30;1.20;;;;;;;9.57;100.00;93954.91;5073624;28;20199;-76
2021/10/04 06:50:49;;;;;;;2.77;1.57;;;;;;;9.54;100.00;93966.53;5073356;28;20195;-76
2021/10/04 06:53:15;;;;;;;3.17;1.70;;;;;;;9.42;100.00;93975.81;5073266;28;20233;-76
2021/10/04 06:55:45;;;;;;;1.90;1.40;;;;;;;9.45;100.00;93983.28;5073533;28;20233;-77
2021/10/04 06:58:11;;;;;;;3.10;1.20;;;;;;;9.51;100.00;93982.53;5073282;28;20633;-76
2021/10/04 07:00:38;;;;;;;1.40;0.87;;;;;;;9.47;100.00;93989.09;5073459;28;20253;-76
2021/10/04 07:03:05;;;;;;;0.93;0.83;;;;;;;9.53;100.00;93990.16;5073239;28;20211;-76
2021/10/04 07:05:32;;;;;;;4.10;1.27;;;;;;;9.58;100.00;93993.81;5073160;28;20248;-77
2021/10/04 07:07:58;;;;;;;1.73;1.00;;;;;;;9.67;100.00;93998.88;5073362;28;20276;-76
2021/10/04 07:10:25;;;;;;;2.20;1.30;;;;;;;9.70;100.00;93995.91;5073257;28;20199;-76
2021/10/04 07:12:52;;;;;;;2.37;1.03;;;;;;;9.57;100.00;93999.19;5073300;28;20199;-76
2021/10/04 07:15:20;;;;;;;2.33;0.87;;;;;;;9.59;100.00;94005.84;5072984;28;20226;-76
2021/10/04 07:17:46;;;;;;;0.53;0.53;;;;;;;9.65;100.00;94013.91;5073017;28;20198;-76
2021/10/04 07:20:14;;;;;;;1.47;1.10;;;;;;;9.68;100.00;94010.94;5072902;28;20195;-76
2021/10/04 07:22:41;;;;;;;2.00;1.50;;;;;;;9.63;100.00;94021.91;5072925;28;20222;-76
2021/10/04 07:25:08;;;;;;;3.80;1.27;;;;;;;9.69;100.00;94025.56;5073008;28;20211;-76
2021/10/04 07:27:34;;;;;;;1.30;1.20;;;;;;;9.68;100.00;94029.19;5073047;28;20252;-76
2021/10/04 07:30:01;;;;;;;1.30;1.10;;;;;;;9.58;100.00;94034.72;5072479;28;20202;-76
2021/10/04 07:32:27;;;;;;;1.60;1.10;;;;;;;9.53;100.00;94037.06;5072746;28;20727;-77
2021/10/04 07:34:54;;;;;;;1.80;0.90;;;;;;;9.48;100.00;94035.03;5073004;28;20576;-76
2021/10/04 07:37:22;;;;;;;0.70;0.70;;;;;;;9.37;100.00;94046.75;5072736;28;20207;-76
2021/10/04 07:39:48;;;;;;;1.10;1.00;;;;;;;9.41;100.00;94039.38;5073016;28;20203;-76
2021/10/04 07:42:16;;;;;;;1.10;0.90;;;;;;;9.43;100.00;94035.56;5072830;28;20656;-76
2021/10/04 07:44:42;;;;;;;1.33;0.80;;;;;;;9.42;100.00;94031.34;5072795;28;20198;-76
2021/10/04 07:47:09;;;;;;;1.40;0.90;;;;;;;9.44;100.00;94033.78;5072731;28;20199;-76
2021/10/04 07:49:35;;;;;;;0.90;0.90;;;;;;;9.43;100.00;94034.78;5072621;28;20201;-76
2021/10/04 07:52:02;;;;;;;0.90;0.90;;;;;;;9.48;100.00;94024.59;5072889;28;20202;-76
2021/10/04 07:54:29;;;;;;;3.63;0.80;;;;;;;9.60;100.00;94038.72;5072842;28;20214;-76
2021/10/04 07:56:56;;;;;;;0.70;0.70;;;;;;;9.61;100.00;94052.59;5072525;28;20226;-76
2021/10/04 07:59:23;;;;;;;2.43;0.90;;;;;;;9.59;100.00;94059.75;5072774;28;20198;-76
2021/10/04 08:01:49;;;;;;;1.30;0.90;;;;;;;9.55;100.00;94076.78;5072566;28;20603;-76
2021/10/04 08:04:16;;;;;;;2.50;0.80;;;;;;;9.49;100.00;94073.09;5056617;28;20249;-76
2021/10/04 08:06:42;;;;;;;1.50;0.90;;;;;;;9.44;100.00;94080.69;5052596;28;20207;-76
2021/10/04 08:09:08;;;;;;;1.40;1.10;;;;;;;9.48;100.00;94075.94;5052542;28;20199;-76
2021/10/04 08:11:36;;;;;;;2.87;1.00;;;;;;;9.50;100.00;94074.72;5063075;28;20206;-75
2021/10/04 08:14:03;;;;;;;0.80;0.70;;;;;;;9.36;100.00;94070.38;5072370;28;20203;-76
2021/10/04 08:16:30;;;;;;;1.37;1.13;;;;;;;9.26;100.00;94078.50;5072311;28;20230;-76
2021/10/04 08:18:56;;;;;;;0.87;0.73;;;;;;;9.36;100.00;94088.63;5072634;28;20199;-75
2021/10/04 08:21:23;;;;;;;1.00;0.90;;;;;;;9.41;100.00;94094.09;5071839;28;20234;-77
2021/10/04 08:23:52;;;;;;;2.20;1.10;;;;;;;9.38;100.00;94099.69;5072436;28;20230;-76
2021/10/04 08:26:19;;;;;;;5.37;0.97;;;;;;;9.48;100.00;94102.78;5072257;28;20199;-77
2021/10/04 08:28:47;;;;;;;2.57;1.13;;;;;;;9.45;100.00;94119.59;5072231;28;20222;-76
2021/10/04 08:31:14;;;;;;;1.03;0.80;;;;;;;9.39;100.00;94120.34;5072608;28;20628;-76
2021/10/04 08:33:40;;;;;;;1.20;0.87;;;;;;;9.34;100.00;94112.28;5072398;28;20554;-76
2021/10/04 08:36:07;;;;;;;1.40;0.90;;;;;;;9.41;100.00;94113.13;5072388;28;20284;-76
2021/10/04 08:38:33;;;;;;;1.17;1.07;;;;;;;9.37;100.00;94106.66;5072587;28;20268;-76
2021/10/04 08:41:00;;;;;;;2.67;1.00;;;;;;;9.44;100.00;94104.97;5072253;28;20202;-76
2021/10/04 08:43:27;;;;;;;3.07;1.00;;;;;;;9.37;100.00;94106.66;5075172;28;20224;-76
2021/10/04 08:45:57;;;;;;;3.00;1.10;;;;;;;9.50;100.00;94106.00;5076039;28;20320;-76
2021/10/04 08:48:25;;;;;;;1.10;1.00;;;;;;;9.46;100.00;94107.38;5075655;28;20207;-76
2021/10/04 08:50:52;;;;;;;1.50;0.90;;;;;;;9.53;100.00;94103.03;5075713;28;20202;-76
2021/10/04 08:53:18;;;;;;;2.73;1.00;;;;;;;9.47;100.00;94106.38;5075438;28;20206;-76
2021/10/04 08:55:45;;;;;;;1.10;0.73;;;;;;;9.44;100.00;94118.00;5075554;28;20226;-76
2021/10/04 08:58:12;;;;;;;0.90;0.80;;;;;;;9.39;100.00;94115.13;5075458;28;20214;-76
2021/10/04 09:00:39;;;;;;;1.53;0.87;;;;;;;9.55;100.00;94119.28;5075747;28;20245;-78
2021/10/04 09:03:07;;;;;;;1.23;0.70;;;;;;;9.55;100.00;94119.28;5075345;28;20669;-78
2021/10/04 09:05:36;;;;;;;0.70;0.70;;;;;;;9.63;100.00;94110.56;5075504;28;20217;-77
2021/10/04 09:08:10;;;;;;;2.67;1.00;;;;;;;9.56;100.00;94133.94;5067725;28;20195;-76
2021/10/04 09:10:39;;;;;;;0.97;0.70;;;;;;;9.65;100.00;94131.22;5070948;28;20234;-76
2021/10/04 09:13:07;;;;;;;1.53;0.90;;;;;;;9.54;100.00;94130.72;5075431;28;20253;-76
2021/10/04 09:15:40;;;;;;;0.97;0.83;;;;;;;9.63;100.00;94129.59;5071081;28;20227;-75
2021/10/04 09:18:11;;;;;;;2.10;0.70;;;;;;;9.62;100.00;94135.78;5054854;28;20276;-76
2021/10/04 09:20:55;;;;;;;2.00;0.70;;;;;;;9.77;100.00;94134.94;5055316;28;20222;-76
2021/10/04 09:23:33;;;;;;;1.20;0.60;;;;;;;9.89;100.00;94125.63;5055366;28;20199;-76
2021/10/04 09:26:01;;;;;;;0.87;0.60;;;;;;;9.99;100.00;94125.28;5055315;28;20207;-76
2021/10/04 09:28:30;;;;;;;1.03;0.70;;;;;;;9.87;100.00;94122.38;5055104;28;20202;-76
2021/10/04 09:31:15;;;;;;;1.53;1.00;;;;;;;9.79;100.00;94125.94;5055141;28;20206;-76
2021/10/04 09:34:05;;;;;;;0.90;0.50;;;;;;;9.79;100.00;94135.56;5055248;28;20605;-75
2021/10/04 09:36:33;;;;;;;1.63;0.70;;;;;;;9.85;100.00;94134.00;5054872;28;20617;-75
2021/10/04 09:39:17;;;;;;;1.23;0.60;;;;;;;10.09;100.00;94130.19;5053750;28;20506;-76
2021/10/04 09:42:04;;;;;;;0.83;0.73;;;;;;;10.04;100.00;94127.34;5054717;28;20210;-76
2021/10/04 09:44:48;;;;;;;0.93;0.60;;;;;;;9.84;100.00;94135.00;5054778;28;20210;-76
2021/10/04 09:47:16;;;;;;;1.03;0.70;;;;;;;9.80;100.00;94131.97;5054909;28;20203;-75
2021/10/04 09:49:54;;;;;;;0.60;0.60;;;;;;;9.99;100.00;94120.91;5054726;28;20589;-76
2021/10/04 09:52:33;;;;;;;0.80;0.70;;;;;;;10.07;100.00;94121.75;5054361;28;20539;-76
2021/10/04 09:55:00;;;;;;;1.60;0.60;;;;;;;10.36;100.00;94108.56;5054576;28;20203;-76
2021/10/04 09:57:26;;;;;;;2.20;0.80;;;;;;;10.55;100.00;94103.66;5054407;28;20223;-76
2021/10/04 09:59:52;;;;;;;0.47;0.47;;;;;;;10.74;100.00;94109.97;5054528;28;20253;-76
2021/10/04 10:02:20;;;;;;;1.07;0.60;;;;;;;10.78;100.00;94110.41;5054370;28;20654;-76
2021/10/04 10:04:50;;;;;;;0.50;0.50;;;;;;;10.86;100.00;94112.88;5054327;28;20199;-76
2021/10/04 10:07:18;;;;;;;1.07;0.60;;;;;;;10.55;100.00;94119.31;5054531;28;20231;-76
2021/10/04 10:09:45;;;;;;;3.90;0.60;;;;;;;10.31;100.00;94120.53;5070955;28;20285;-76
2021/10/04 10:12:11;;;;;;;0.70;0.60;;;;;;;10.42;100.00;94125.25;5074136;28;20684;-76
2021/10/04 10:14:40;;;;;;;0.53;0.50;;;;;;;10.57;100.00;94121.75;5074132;28;20203;-76
2021/10/04 10:17:11;;;;;;;0.60;0.50;;;;;;;10.87;100.00;94101.41;5073872;28;20225;-76
2021/10/04 10:19:38;;;;;;;0.93;0.63;;;;;;;11.11;100.00;94098.31;5074254;28;20202;-76
2021/10/04 10:22:13;;;;;;;2.10;0.70;;;;;;;11.24;100.00;94097.53;5073921;28;20234;-76
2021/10/04 10:24:41;;;;;;;0.60;0.60;;;;;;;11.37;100.00;94104.59;5073970;28;20608;-76
2021/10/04 10:27:08;;;;;;;0.75;0.43;;;;;;;11.13;100.00;94110.38;5073897;28;20301;-76
2021/10/04 10:29:35;;;;;;;0.40;0.40;;;;;;;11.28;100.00;94093.53;5073708;28;20653;-76
2021/10/04 10:32:08;;;;;;;1.85;0.63;;;;;;;11.50;100.00;94087.34;5073780;28;20241;-76
2021/10/04 10:35:01;;;;;;;0.50;0.50;;;;;;;11.17;100.00;94096.69;5073886;28;20206;-76
2021/10/04 10:37:45;;;;;;;0.50;0.50;;;;;;;11.18;100.00;94092.31;5073530;28;20716;-76
2021/10/04 10:40:15;;;;;;;1.58;0.60;;;;;;;11.35;100.00;94090.94;5073594;28;20237;-75
2021/10/04 10:42:58;;;;;;;0.50;0.50;;;;;;;11.85;100.00;94099.25;5073746;28;20199;-76
2021/10/04 10:45:24;;;;;;;0.45;0.45;;;;;;;11.95;100.00;94091.03;5073720;28;20194;-76
2021/10/04 10:48:00;;;;;;;0.60;0.60;;;;;;;12.10;100.00;94095.28;5073565;28;20206;-75
2021/10/04 10:50:35;;;;;;;0.70;0.50;;;;;;;12.03;100.00;94096.09;5073135;28;20259;-76
2021/10/04 10:53:07;;;;;;;1.20;0.60;;;;;;;12.27;100.00;94093.06;5073413;28;20608;-76
2021/10/04 10:55:36;;;;;;;0.45;0.45;;;;;;;12.56;100.00;94089.22;5073540;28;20202;-76
2021/10/04 10:58:05;;;;;;;1.13;0.50;;;;;;;12.24;100.00;94086.44;5073494;28;20199;-76
2021/10/04 11:00:34;;;;;;;0.30;0.30;;;;;;;11.81;100.00;94084.97;5073478;28;20234;-75
2021/10/04 11:03:04;;;;;;;0.82;0.47;;;;;;;11.82;100.00;94081.38;5073157;28;20199;-76
2021/10/04 11:05:49;;;;;;;0.40;0.40;;;;;;;12.21;100.00;94082.41;5072857;28;20199;-76
2021/10/04 11:08:17;;;;;;;0.80;0.50;;;;;;;12.24;100.00;94077.75;5061842;28;20237;-76
2021/10/04 11:11:11;;;;;;;0.40;0.40;;;;;;;12.17;100.00;94073.34;5073299;28;20207;-76
2021/10/04 11:13:39;;;;;;;0.57;0.47;;;;;;;12.12;100.00;94057.41;5071759;28;21001;-75
2021/10/04 11:16:30;;;;;;;0.55;0.55;;;;;;;12.49;100.00;94054.34;5073139;28;20230;-75
2021/10/04 11:18:58;;;;;;;0.50;0.40;;;;;;;12.64;100.00;94048.88;5064516;28;20237;-75
2021/10/04 11:21:28;;;;;;;4.05;0.68;;;;;;;12.87;100.00;94043.97;5072926;28;20235;-76
2021/10/04 11:23:58;;;;;;;0.40;0.40;;;;;;;13.15;100.00;94032.34;5072716;28;20195;-77
2021/10/04 11:26:28;;;;;;;1.38;0.60;;;;;;;13.14;100.00;94028.94;5073156;28;20297;-76
2021/10/04 11:28:57;;;;;;;0.52;0.40;;;;;;;13.36;100.00;94033.09;5072842;28;20203;-76
2021/10/04 11:31:26;;;;;;;0.50;0.50;;;;;;;13.19;100.00;94033.53;5072869;28;20199;-76
2021/10/04 11:33:57;;;;;;;0.45;0.40;;;;;;;12.65;100.00;94042.63;5073019;28;20206;-76
2021/10/04 11:36:26;;;;;;;0.50;0.50;;;;;;;12.42;100.00;94046.50;5072761;28;20227;-75